Albany, Nebraska
Current Conditions -  °F | °C
As of 7:35 AM on Friday 31 Oct 2014 (Local Time) from KHDE Reporting Station
Overcast Overcast  
Wind Chill: 20°   Ceiling: 1700
Heat Index: 29°   Visibility: 10mi
Dew Point: 24°   Wind: 10mph
Humidity: 79%   Direction: 10°N
Pressure: 30.53"   Gusts: NA
Location:  40.2849°N, 99.6171°W
Report Text: KHDE 311235Z AUTO 01009KT 10SM OVC017 M01/M05 A3053 RMK AO2 T10151047
Loading
Personal Weather Stations






























Interactive Weather Map
Tropical Storm Tracking
New forecast layout! Learn more

10-Day Weather Forecast

Advertisements
Track Severe Weather on mobile